createdAt,value
2023-05-03T03:47:59.800Z,11.70
2023-05-03T03:50:26.977Z,12.10
2023-05-03T03:52:56.810Z,11.90
2023-05-03T03:55:23.980Z,12.10
2023-05-03T03:57:51.375Z,12.10
2023-05-03T04:00:18.458Z,12.10
2023-05-03T04:02:47.082Z,11.90
2023-05-03T04:05:14.588Z,11.80
2023-05-03T04:07:41.670Z,11.80
2023-05-03T04:10:09.028Z,11.80
2023-05-03T04:12:36.095Z,11.70
2023-05-03T04:15:03.457Z,11.90
2023-05-03T04:17:32.057Z,11.70
2023-05-03T04:19:59.133Z,11.40
2023-05-03T04:22:26.520Z,11.80
2023-05-03T04:24:54.908Z,11.80
2023-05-03T04:27:21.955Z,11.60
2023-05-03T04:29:49.223Z,11.80
2023-05-03T04:32:17.031Z,11.60
2023-05-03T04:34:44.370Z,11.80
2023-05-03T04:37:11.604Z,11.50
2023-05-03T04:39:38.596Z,11.60
2023-05-03T04:42:05.695Z,11.70
2023-05-03T04:44:33.099Z,11.40
2023-05-03T04:47:00.275Z,11.70
2023-05-03T04:49:27.374Z,11.50
2023-05-03T04:51:55.218Z,11.70
2023-05-03T04:54:23.359Z,11.50
2023-05-03T04:56:51.021Z,11.70
2023-05-03T04:59:18.024Z,11.70
2023-05-03T05:01:45.051Z,11.70
2023-05-03T05:04:12.024Z,11.60
2023-05-03T05:06:39.232Z,11.70
2023-05-03T05:09:07.485Z,11.80
2023-05-03T05:11:35.058Z,11.60
2023-05-03T05:14:02.132Z,11.60
2023-05-03T05:16:32.158Z,11.60
2023-05-03T05:18:59.240Z,11.70
2023-05-03T05:21:27.046Z,11.90
2023-05-03T05:23:54.080Z,11.70
2023-05-03T05:26:21.283Z,11.70
2023-05-03T05:28:48.344Z,11.90
2023-05-03T05:31:15.704Z,12.00
2023-05-03T05:33:42.895Z,11.80
2023-05-03T05:36:09.977Z,12.00
2023-05-03T05:38:37.169Z,11.90
2023-05-03T05:41:05.275Z,12.20
2023-05-03T05:43:33.569Z,12.00
2023-05-03T05:46:01.753Z,12.00
2023-05-03T05:48:28.814Z,12.10
2023-05-03T05:50:56.368Z,12.10
2023-05-03T05:53:24.793Z,12.20
2023-05-03T05:55:51.939Z,12.00
2023-05-03T05:58:18.990Z,12.60
2023-05-03T06:00:49.234Z,12.20
2023-05-03T06:03:16.612Z,12.50
2023-05-03T06:05:44.033Z,12.80
2023-05-03T06:08:11.397Z,12.80
2023-05-03T06:10:38.419Z,12.90
2023-05-03T06:13:05.668Z,12.90
2023-05-03T06:15:33.180Z,13.00
2023-05-03T06:18:00.609Z,13.00
2023-05-03T06:20:27.672Z,12.90
2023-05-03T06:22:56.072Z,13.10
2023-05-03T06:25:23.169Z,13.20
2023-05-03T06:27:50.372Z,13.20
2023-05-03T06:30:17.524Z,13.30
2023-05-03T06:32:47.328Z,13.20
2023-05-03T06:35:14.435Z,13.30
2023-05-03T06:37:43.869Z,13.30
2023-05-03T06:40:11.631Z,13.40
2023-05-03T06:42:39.004Z,13.50
2023-05-03T06:45:06.611Z,13.40
2023-05-03T06:47:43.016Z,13.40
2023-05-03T06:50:16.861Z,13.50
2023-05-03T06:52:49.197Z,13.50
2023-05-03T06:55:28.951Z,13.50
2023-05-03T06:58:14.262Z,13.50
2023-05-03T07:00:59.799Z,13.60
2023-05-03T07:03:39.954Z,13.60
2023-05-03T07:06:14.625Z,13.50
2023-05-03T07:09:02.147Z,13.40
2023-05-03T07:14:30.454Z,13.40
2023-05-03T07:17:06.962Z,13.50
2023-05-03T07:19:42.842Z,13.70
2023-05-03T07:22:28.318Z,13.50
2023-05-03T07:25:05.340Z,13.60
2023-05-03T07:27:35.817Z,13.70
2023-05-03T07:30:09.144Z,13.70
2023-05-03T07:32:48.335Z,13.60
2023-05-03T07:35:15.650Z,13.80
2023-05-03T07:37:54.060Z,13.80
2023-05-03T07:40:29.738Z,14.00
2023-05-03T07:43:15.628Z,13.80
2023-05-03T07:48:39.403Z,13.80
2023-05-03T07:51:24.872Z,13.80
2023-05-03T07:54:14.969Z,13.60
2023-05-03T07:57:01.527Z,13.90
2023-05-03T07:59:43.956Z,13.80
2023-05-03T08:08:09.976Z,13.90
2023-05-03T08:10:45.422Z,13.90
2023-05-03T08:13:48.302Z,13.80
2023-05-03T08:16:35.078Z,13.90
2023-05-03T08:21:54.431Z,14.00
2023-05-03T08:27:52.954Z,14.00
2023-05-03T08:33:37.007Z,14.10
2023-05-03T08:36:30.807Z,14.20
2023-05-03T08:50:31.756Z,14.40
2023-05-03T08:52:59.560Z,14.50
2023-05-03T08:55:26.540Z,14.50
2023-05-03T08:57:53.489Z,14.50
2023-05-03T09:00:28.106Z,14.60
2023-05-03T09:02:55.167Z,14.60
2023-05-03T09:05:22.267Z,14.70
2023-05-03T09:08:05.972Z,14.50
2023-05-03T09:10:34.127Z,14.50
2023-05-03T09:13:02.184Z,14.50
2023-05-03T09:15:30.484Z,14.60
2023-05-03T09:18:17.405Z,14.50
2023-05-03T09:20:52.311Z,14.50
2023-05-03T09:23:31.084Z,14.50
2023-05-03T09:25:58.652Z,14.50
2023-05-03T09:28:25.598Z,14.50
2023-05-03T09:31:07.110Z,14.50
2023-05-03T09:33:34.149Z,14.50
2023-05-03T09:36:02.414Z,14.60
2023-05-03T09:38:30.454Z,14.50
2023-05-03T09:40:57.718Z,14.60
2023-05-03T09:43:25.081Z,14.60
2023-05-03T09:45:52.088Z,14.60
2023-05-03T09:48:23.465Z,14.60
2023-05-03T09:50:51.217Z,14.70
2023-05-03T09:53:19.987Z,14.70
2023-05-03T09:55:47.689Z,14.80
2023-05-03T09:58:15.315Z,14.80
2023-05-03T10:00:43.829Z,14.90
2023-05-03T10:03:12.482Z,14.90
2023-05-03T10:05:49.732Z,14.90
2023-05-03T10:08:19.530Z,14.90
2023-05-03T10:10:48.652Z,14.80
2023-05-03T10:13:15.879Z,14.90
2023-05-03T10:15:44.122Z,15.00
2023-05-03T10:18:13.375Z,15.10
2023-05-03T10:20:43.754Z,15.10
2023-05-03T10:23:12.622Z,15.20
2023-05-03T10:25:45.564Z,15.30
2023-05-03T10:28:13.180Z,15.30
2023-05-03T10:30:40.509Z,15.50
2023-05-03T10:33:13.586Z,15.50
2023-05-03T10:35:41.870Z,15.60
2023-05-03T10:38:15.294Z,15.60
2023-05-03T10:40:46.545Z,15.70
2023-05-03T10:43:28.645Z,15.70
2023-05-03T10:45:58.974Z,15.80
2023-05-03T10:48:26.563Z,15.80
2023-05-03T10:50:53.619Z,15.90
2023-05-03T10:53:37.019Z,16.00
2023-05-03T10:56:06.620Z,16.00
2023-05-03T10:58:55.948Z,16.00
2023-05-03T11:01:23.260Z,16.00
2023-05-03T11:03:52.383Z,16.00
2023-05-03T11:06:36.473Z,16.00
2023-05-03T11:09:04.601Z,16.10
2023-05-03T11:11:31.639Z,16.10
2023-05-03T11:13:58.962Z,16.10
2023-05-03T11:16:26.560Z,16.20
2023-05-03T11:18:53.849Z,16.30
2023-05-03T11:21:21.141Z,16.30
2023-05-03T11:23:48.204Z,16.30
2023-05-03T11:26:15.126Z,16.30
2023-05-03T11:28:42.749Z,16.40
2023-05-03T11:31:10.511Z,16.40
2023-05-03T11:33:38.264Z,16.40
2023-05-03T11:36:06.305Z,16.40
2023-05-03T11:38:33.536Z,16.50
2023-05-03T11:41:01.515Z,16.50
2023-05-03T11:43:29.011Z,16.60
2023-05-03T11:45:57.557Z,16.70
2023-05-03T11:48:26.049Z,16.60
2023-05-03T11:50:56.511Z,16.70
2023-05-03T11:53:24.055Z,16.60
2023-05-03T11:55:53.155Z,16.60
2023-05-03T11:58:24.859Z,16.60
2023-05-03T12:00:55.856Z,16.60
2023-05-03T12:03:24.791Z,16.70
2023-05-03T12:05:53.462Z,16.70
2023-05-03T12:08:22.400Z,17.00
2023-05-03T12:10:53.398Z,16.80
2023-05-03T12:13:30.053Z,16.90
2023-05-03T12:16:10.210Z,16.90
2023-05-03T12:18:46.867Z,16.90
2023-05-03T12:23:46.124Z,16.90
2023-05-03T12:26:14.526Z,17.00
2023-05-03T12:28:41.992Z,17.10
2023-05-03T12:31:09.164Z,17.10
2023-05-03T12:33:38.619Z,17.10
2023-05-03T12:36:09.622Z,17.10
2023-05-03T12:38:37.789Z,17.10
2023-05-03T12:41:08.822Z,17.10
2023-05-03T12:43:36.563Z,17.10
2023-05-03T12:46:25.107Z,17.10
2023-05-03T12:48:53.707Z,17.10
2023-05-03T12:51:25.739Z,17.10
2023-05-03T12:53:55.067Z,17.20
2023-05-03T12:56:24.967Z,17.20
2023-05-03T12:59:20.081Z,17.30
2023-05-03T13:06:46.772Z,17.20
2023-05-03T13:09:20.736Z,17.30
2023-05-03T13:11:50.204Z,17.40
2023-05-03T13:14:18.014Z,17.40
2023-05-03T13:16:45.639Z,17.40
2023-05-03T13:19:12.918Z,17.50
2023-05-03T13:21:39.985Z,17.50
2023-05-03T13:24:07.140Z,17.50
2023-05-03T13:26:35.500Z,17.60
2023-05-03T13:29:02.709Z,17.60
2023-05-03T13:31:30.226Z,17.60
2023-05-03T13:33:57.347Z,17.60
2023-05-03T13:36:24.485Z,17.60
2023-05-03T13:38:51.986Z,17.60
2023-05-03T13:41:19.539Z,17.60
2023-05-03T13:43:47.172Z,17.70
2023-05-03T13:46:14.405Z,17.70
2023-05-03T13:48:41.969Z,17.70
2023-05-03T13:51:09.315Z,17.70
2023-05-03T13:53:36.249Z,17.70
2023-05-03T13:56:03.955Z,17.70
2023-05-03T13:58:30.961Z,17.70
2023-05-03T14:00:58.183Z,17.70
2023-05-03T14:03:25.319Z,17.70
2023-05-03T14:05:52.347Z,17.70
2023-05-03T14:08:19.321Z,17.70
2023-05-03T14:10:46.241Z,17.80
2023-05-03T14:13:13.192Z,17.80
2023-05-03T14:15:41.191Z,17.90
2023-05-03T14:18:08.837Z,17.80
2023-05-03T14:20:36.290Z,18.00
2023-05-03T14:23:03.821Z,18.00
2023-05-03T14:25:30.828Z,17.80
2023-05-03T14:27:57.847Z,17.80
2023-05-03T14:30:24.748Z,17.90
2023-05-03T14:32:52.552Z,17.90
2023-05-03T14:35:20.089Z,17.90
2023-05-03T14:37:47.142Z,17.90
2023-05-03T14:40:14.485Z,18.00
2023-05-03T14:42:41.512Z,17.90
2023-05-03T14:45:11.000Z,17.90
2023-05-03T14:47:39.650Z,17.90
2023-05-03T14:50:07.076Z,17.90
2023-05-03T14:52:35.195Z,18.00
2023-05-03T14:55:02.275Z,18.00
2023-05-03T14:57:31.529Z,18.00
2023-05-03T14:59:59.997Z,18.10
2023-05-03T15:02:27.333Z,18.10
2023-05-03T15:04:54.308Z,18.10
2023-05-03T15:07:21.288Z,18.10
2023-05-03T15:09:48.214Z,18.10
2023-05-03T15:12:15.914Z,18.00
2023-05-03T15:14:43.023Z,18.00
2023-05-03T15:17:10.038Z,18.10
2023-05-03T15:19:37.246Z,18.10
2023-05-03T15:22:04.155Z,18.00
2023-05-03T15:24:31.173Z,18.00
2023-05-03T15:27:00.358Z,18.00
2023-05-03T15:29:27.380Z,18.00
2023-05-03T15:31:54.279Z,18.00
2023-05-03T15:34:21.217Z,17.90
2023-05-03T15:36:48.171Z,17.90
2023-05-03T15:39:15.382Z,17.90
2023-05-03T15:41:42.451Z,18.00
2023-05-03T15:44:09.737Z,18.10
2023-05-03T15:46:37.286Z,18.10
2023-05-03T15:49:04.774Z,18.10
2023-05-03T15:51:32.023Z,18.20
2023-05-03T15:53:59.076Z,18.20
2023-05-03T15:56:27.590Z,18.20
2023-05-03T15:58:54.733Z,18.10
2023-05-03T16:01:21.674Z,18.10
2023-05-03T16:03:48.710Z,18.10
2023-05-03T16:06:18.474Z,18.10
2023-05-03T16:08:45.635Z,18.20
2023-05-03T16:11:13.316Z,18.20
2023-05-03T16:13:40.568Z,18.20
2023-05-03T16:16:07.513Z,18.20
2023-05-03T16:18:34.584Z,18.20
2023-05-03T16:21:02.432Z,18.30
2023-05-03T16:23:29.503Z,18.40
2023-05-03T16:25:56.603Z,18.40
2023-05-03T16:28:23.685Z,18.30
2023-05-03T16:30:50.686Z,18.30
2023-05-03T16:33:18.176Z,18.30
2023-05-03T16:35:45.116Z,18.40
2023-05-03T16:38:12.039Z,18.40
2023-05-03T16:40:40.266Z,18.50
2023-05-03T16:43:07.698Z,18.50
2023-05-03T16:45:34.740Z,18.50
2023-05-03T16:48:04.815Z,18.60
2023-05-03T16:50:32.515Z,18.60
2023-05-03T16:52:59.434Z,18.70
2023-05-03T16:55:26.349Z,18.80
2023-05-03T16:57:53.308Z,18.90
2023-05-03T17:00:21.832Z,18.90
2023-05-03T17:02:49.210Z,18.90
2023-05-03T17:05:16.314Z,19.00
2023-05-03T17:07:43.371Z,19.00
2023-05-03T17:10:10.833Z,19.00
2023-05-03T17:12:37.964Z,18.90
2023-05-03T17:15:05.136Z,18.90
2023-05-03T17:17:33.296Z,18.90
2023-05-03T17:20:00.415Z,18.90
2023-05-03T17:22:27.932Z,19.00
2023-05-03T17:24:56.796Z,19.00
2023-05-03T17:27:24.402Z,19.00
2023-05-03T17:29:51.303Z,19.00
2023-05-03T17:32:18.307Z,19.00
2023-05-03T17:34:45.246Z,19.00
2023-05-03T17:37:12.230Z,19.00
2023-05-03T17:39:39.336Z,19.20
2023-05-03T17:42:06.392Z,18.90
2023-05-03T17:44:33.485Z,18.90
2023-05-03T17:47:00.813Z,18.90
2023-05-03T17:49:27.735Z,19.10
2023-05-03T17:51:54.689Z,18.90
2023-05-03T17:54:21.636Z,18.90
2023-05-03T17:56:48.551Z,18.80
2023-05-03T17:59:16.414Z,18.80
2023-05-03T18:01:43.392Z,18.80
2023-05-03T18:04:10.400Z,18.90
2023-05-03T18:06:37.378Z,18.80
2023-05-03T18:09:04.445Z,18.90
2023-05-03T18:11:31.519Z,18.90
2023-05-03T18:13:58.518Z,18.90
2023-05-03T18:16:25.655Z,18.80
2023-05-03T18:18:53.407Z,18.80
2023-05-03T18:21:21.910Z,18.80
2023-05-03T18:23:49.036Z,18.90
2023-05-03T18:26:16.593Z,18.80
2023-05-03T18:28:43.763Z,18.70
2023-05-03T18:31:11.037Z,18.70
2023-05-03T18:33:39.959Z,18.70
2023-05-03T18:36:11.645Z,18.70
2023-05-03T18:38:38.985Z,18.60
2023-05-03T18:41:13.817Z,18.60
2023-05-03T18:43:41.688Z,18.50
2023-05-03T18:46:09.081Z,18.50
2023-05-03T18:48:36.303Z,18.50
2023-05-03T18:51:04.641Z,18.40
2023-05-03T18:53:34.348Z,18.40
2023-05-03T18:56:02.143Z,18.30
2023-05-03T18:58:29.460Z,18.30
2023-05-03T19:00:58.326Z,18.20
2023-05-03T19:03:31.005Z,18.10
2023-05-03T19:06:03.547Z,18.10
2023-05-03T19:08:30.784Z,18.00
2023-05-03T19:10:57.716Z,18.00
2023-05-03T19:13:25.338Z,17.90
2023-05-03T19:15:52.257Z,17.90
2023-05-03T19:18:19.185Z,17.80
2023-05-03T19:20:46.117Z,17.70
2023-05-03T19:23:13.000Z,17.70
2023-05-03T19:25:39.913Z,17.70
2023-05-03T19:28:07.888Z,17.60
2023-05-03T19:30:34.904Z,17.60
2023-05-03T19:33:01.949Z,17.50
2023-05-03T19:35:28.864Z,17.50
2023-05-03T19:37:55.951Z,17.50
2023-05-03T19:40:24.655Z,17.40
2023-05-03T19:42:52.402Z,17.40
2023-05-03T19:45:19.410Z,17.30
2023-05-03T19:47:46.439Z,17.50
2023-05-03T19:50:13.363Z,17.20
2023-05-03T19:52:41.949Z,17.20
2023-05-03T19:55:09.281Z,17.10
2023-05-03T19:57:36.401Z,17.10
2023-05-03T20:00:05.436Z,17.00
2023-05-03T20:02:32.998Z,17.00
2023-05-03T20:04:59.915Z,17.00
2023-05-03T20:07:27.109Z,17.00
2023-05-03T20:09:54.035Z,16.90
2023-05-03T20:12:20.930Z,16.90
2023-05-03T20:14:47.844Z,16.90
2023-05-03T20:17:14.837Z,16.80
2023-05-03T20:19:41.789Z,16.80
2023-05-03T20:22:08.735Z,16.70
2023-05-03T20:24:35.662Z,16.70
2023-05-03T20:27:03.020Z,16.90
2023-05-03T20:29:29.986Z,16.60
2023-05-03T20:31:56.950Z,16.60
2023-05-03T20:34:23.887Z,16.60
2023-05-03T20:36:51.129Z,16.60
2023-05-03T20:39:18.218Z,16.60
2023-05-03T20:41:45.251Z,16.50
2023-05-03T20:44:12.330Z,16.50
2023-05-03T20:46:39.359Z,16.40
2023-05-03T20:49:09.035Z,16.40
2023-05-03T20:51:36.817Z,16.30
2023-05-03T20:54:03.758Z,16.30
2023-05-03T20:56:31.822Z,16.30
2023-05-03T20:58:58.787Z,16.30
2023-05-03T21:01:25.704Z,16.30
2023-05-03T21:03:52.726Z,16.30
2023-05-03T21:06:19.696Z,16.30
2023-05-03T21:08:46.986Z,16.30
2023-05-03T21:11:13.937Z,16.20
2023-05-03T21:13:41.574Z,16.20
2023-05-03T21:16:09.362Z,16.10
2023-05-03T21:18:36.377Z,16.10
2023-05-03T21:21:03.750Z,16.10
2023-05-03T21:23:30.779Z,16.10
2023-05-03T21:25:57.752Z,16.10
2023-05-03T21:28:24.713Z,16.10
2023-05-03T21:30:53.327Z,16.20
2023-05-03T21:33:21.112Z,16.00
2023-05-03T21:35:49.396Z,16.00
2023-05-03T21:38:17.647Z,16.00
2023-05-03T21:40:46.961Z,16.10
2023-05-03T21:43:14.013Z,16.00
2023-05-03T21:45:41.652Z,16.00
2023-05-03T21:48:08.568Z,15.90
2023-05-03T21:50:39.348Z,15.80
2023-05-03T21:53:07.159Z,15.80
2023-05-03T21:55:34.113Z,15.80
2023-05-03T21:58:01.048Z,15.70
2023-05-03T22:00:28.867Z,15.70
2023-05-03T22:02:55.988Z,15.70
2023-05-03T22:05:24.232Z,15.60
2023-05-03T22:07:51.145Z,15.60
2023-05-03T22:10:18.550Z,15.60
2023-05-03T22:12:46.108Z,15.70
2023-05-03T22:15:13.269Z,15.60
2023-05-03T22:17:40.696Z,15.50
2023-05-03T22:20:08.457Z,15.60
2023-05-03T22:22:35.491Z,15.40
2023-05-03T22:25:02.790Z,15.40
2023-05-03T22:27:29.761Z,15.50
2023-05-03T22:29:56.744Z,15.30
2023-05-03T22:32:23.777Z,15.30
2023-05-03T22:34:50.811Z,15.30
2023-05-03T22:37:17.766Z,15.30
2023-05-03T22:39:44.697Z,15.30
2023-05-03T22:42:12.012Z,15.30
2023-05-03T22:44:38.920Z,15.20
2023-05-03T22:47:05.828Z,15.20
2023-05-03T22:49:32.738Z,15.20
2023-05-03T22:51:59.816Z,15.20
2023-05-03T22:54:27.067Z,15.10
2023-05-03T22:56:54.615Z,15.10
2023-05-03T22:59:21.545Z,15.10
